Details From ESSV - Visby
To EVLA - LIEPAJA INTL
Flight Number -
Tags generated
Created
Modified
Stats Distance 113 nm / 210 km
Max Altitude 9,500 ft / 2,896 m
Waypoints 4
Social Downloads 1
Likes 0
Share VATSIM

Download

Looking for another format? Having issues loading an existing format? Contact us
Advertisement - Login to hide

Notes

Basic altitude profile: - Ascent Rate: 2500ft/min - Ascent Speed: 250kts - Cruise Altitude: 10000ft - Cruise Speed: 420kts - Descent Rate: 1500ft/min - Descent Speed: 250kts Options: - Use NATs: yes - Use PACOTS: yes - Use low airways: yes - Use high airways: yes

Route

ESSV DESON L747 LIE EVLA

ID Type Via Altitude Latitude Longitude Leg Dist Tot Dist Heading (true) Name
O ESSV APT - 0 ft / 0 m 57.65641˚ 18.34245˚ - 0 nm - Visby
DESON FIX - 6,800 ft / 2,073 m 56.89472˚ 20.42028˚ 81 nm 81 nm 123° / 125° -
LIE VOR L747 (AWY-LO) 9,500 ft / 2,896 m 56.51856˚ 21.09197˚ 31 nm 113 nm 135° / 136° -
O EVLA APT - 0 ft / 0 m 56.51752˚ 21.09706˚ 0 nm 113 nm 110° / 110° LIEPAJA INTL

Altitude Profile

Advertisement - Login to hide

ESSV

Details ICAO ESSV (VBY)
Name Visby
Region Sweden
Timezone Europe/Stockholm (UTC+1.0)
Stats Elevation 164 ft / 50 m (AMSL)
Location 57.656405° 18.342448°
Runways 2
Magnetic Variation 5.914° E

METAR

ESSV 161120Z 27003KT 9999 BKN017 02/M00 Q0998 R21/29//79

Decode

TAF

Not found

Departure Runways

ID Width Length Bearing (true) Bearing (mag) Surface Threshold Offset Overrun Length
03 148 ft / 45 m 6,552 ft / 1,997 m 20.95° 15.04° Asphalt 0 ft / 0 m 0 ft / 0 m
10 131 ft / 40 m 3,599 ft / 1,097 m 101.41° 95.50° Grass 0 ft / 0 m 0 ft / 0 m
21 148 ft / 45 m 6,552 ft / 1,997 m 200.96° 195.05° Asphalt 0 ft / 0 m 0 ft / 0 m
28 131 ft / 40 m 3,599 ft / 1,097 m 281.43° 275.52° Grass 0 ft / 0 m 0 ft / 0 m

EVLA

Details ICAO EVLA (LPX)
Name LIEPAJA INTL
Region Latvia
Timezone Europe/Riga (UTC+2.0)
Stats Elevation 16 ft / 5 m (AMSL)
Location 56.517524° 21.097060°
Runways 1
Magnetic Variation 6.636° E

METAR

EVLA 161120Z AUTO 14003KT 100V170 7000 BKN002 BKN040 BKN054 02/02 Q0999

Decode

TAF

TAF EVLA 160802Z 1609/1709 15007KT 9999 BKN015 OVC020 TEMPO 1609/1620 3000 -SHRASN BKN007 BKN010CB BECMG 1620/1622 VRB02KT 3000 BR BKN010 TEMPO 1622/1703 0700 FG BKN002 BECMG 1703/1705 27007KT 8000 NSW BKN020 TEMPO 1705/1709 3000 -RASN BKN010

Decode

Destination Runways

ID Width Length Bearing (true) Bearing (mag) Surface Threshold Offset Overrun Length
07 131 ft / 40 m 6,548 ft / 1,996 m 70.20° 63.56° Asphalt 0 ft / 0 m 984 ft / 300 m
25 131 ft / 40 m 6,548 ft / 1,996 m 250.23° 243.59° Asphalt 0 ft / 0 m 197 ft / 60 m